sensor_id;sensor_type;location;lat;lon;timestamp;P1;durP1;ratioP1;P2;durP2;ratioP2
7845;SDS011;3968;51.424;6.788;2023-06-24T00:01:50;7.07;;;6.38;;
7845;SDS011;3968;51.424;6.788;2023-06-24T00:04:16;7.32;;;6.28;;
7845;SDS011;3968;51.424;6.788;2023-06-24T00:06:44;8.25;;;7.15;;
7845;SDS011;3968;51.424;6.788;2023-06-24T00:09:10;9.32;;;6.43;;
7845;SDS011;3968;51.424;6.788;2023-06-24T00:11:35;8.73;;;6.53;;
7845;SDS011;3968;51.424;6.788;2023-06-24T00:14:01;8.35;;;7.13;;
7845;SDS011;3968;51.424;6.788;2023-06-24T00:16:26;9.35;;;6.63;;
7845;SDS011;3968;51.424;6.788;2023-06-24T00:18:55;7.72;;;6.88;;
7845;SDS011;3968;51.424;6.788;2023-06-24T00:21:25;8.45;;;7.45;;
7845;SDS011;3968;51.424;6.788;2023-06-24T00:23:57;7.88;;;6.78;;
7845;SDS011;3968;51.424;6.788;2023-06-24T00:26:24;9.90;;;7.03;;
7845;SDS011;3968;51.424;6.788;2023-06-24T00:28:50;11.07;;;7.40;;
7845;SDS011;3968;51.424;6.788;2023-06-24T00:31:16;7.93;;;6.75;;
7845;SDS011;3968;51.424;6.788;2023-06-24T00:33:42;7.45;;;6.60;;
7845;SDS011;3968;51.424;6.788;2023-06-24T00:36:08;8.13;;;6.88;;
7845;SDS011;3968;51.424;6.788;2023-06-24T00:38:36;8.48;;;7.47;;
7845;SDS011;3968;51.424;6.788;2023-06-24T00:41:03;9.00;;;6.65;;
7845;SDS011;3968;51.424;6.788;2023-06-24T00:43:29;9.13;;;6.85;;
7845;SDS011;3968;51.424;6.788;2023-06-24T00:45:55;8.45;;;7.50;;
7845;SDS011;3968;51.424;6.788;2023-06-24T00:48:21;9.05;;;7.43;;
7845;SDS011;3968;51.424;6.788;2023-06-24T00:50:47;8.20;;;7.32;;
7845;SDS011;3968;51.424;6.788;2023-06-24T00:53:15;8.43;;;7.63;;
7845;SDS011;3968;51.424;6.788;2023-06-24T00:55:41;8.50;;;7.57;;
7845;SDS011;3968;51.424;6.788;2023-06-24T00:58:06;11.75;;;7.68;;
7845;SDS011;3968;51.424;6.788;2023-06-24T01:00:33;8.18;;;7.20;;
7845;SDS011;3968;51.424;6.788;2023-06-24T01:02:59;8.77;;;7.20;;
7845;SDS011;3968;51.424;6.788;2023-06-24T01:05:26;10.30;;;7.07;;
7845;SDS011;3968;51.424;6.788;2023-06-24T01:07:53;9.48;;;7.07;;
7845;SDS011;3968;51.424;6.788;2023-06-24T01:10:21;8.55;;;7.63;;
7845;SDS011;3968;51.424;6.788;2023-06-24T01:12:48;8.38;;;7.47;;
7845;SDS011;3968;51.424;6.788;2023-06-24T01:15:14;9.25;;;7.40;;
7845;SDS011;3968;51.424;6.788;2023-06-24T01:17:59;8.60;;;6.90;;
7845;SDS011;3968;51.424;6.788;2023-06-24T01:20:46;9.80;;;7.60;;
7845;SDS011;3968;51.424;6.788;2023-06-24T01:32:18;7.45;;;6.22;;
7845;SDS011;3968;51.424;6.788;2023-06-24T01:34:53;7.60;;;6.80;;
7845;SDS011;3968;51.424;6.788;2023-06-24T01:42:34;7.15;;;6.45;;
7845;SDS011;3968;51.424;6.788;2023-06-24T01:45:10;8.00;;;6.97;;
7845;SDS011;3968;51.424;6.788;2023-06-24T01:47:40;9.45;;;7.70;;
7845;SDS011;3968;51.424;6.788;2023-06-24T01:50:09;8.65;;;7.07;;
7845;SDS011;3968;51.424;6.788;2023-06-24T01:52:36;10.90;;;7.75;;
7845;SDS011;3968;51.424;6.788;2023-06-24T01:55:04;8.07;;;7.28;;
7845;SDS011;3968;51.424;6.788;2023-06-24T01:57:33;8.18;;;7.38;;
7845;SDS011;3968;51.424;6.788;2023-06-24T02:00:02;8.05;;;7.25;;
7845;SDS011;3968;51.424;6.788;2023-06-24T02:02:31;7.75;;;6.95;;
7845;SDS011;3968;51.424;6.788;2023-06-24T02:04:58;10.20;;;7.35;;
7845;SDS011;3968;51.424;6.788;2023-06-24T02:07:26;10.38;;;7.28;;
7845;SDS011;3968;51.424;6.788;2023-06-24T02:09:54;7.43;;;6.68;;
7845;SDS011;3968;51.424;6.788;2023-06-24T02:12:21;8.93;;;7.28;;
7845;SDS011;3968;51.424;6.788;2023-06-24T02:14:47;7.80;;;6.55;;
7845;SDS011;3968;51.424;6.788;2023-06-24T02:17:14;7.90;;;7.10;;
7845;SDS011;3968;51.424;6.788;2023-06-24T02:19:40;8.48;;;7.03;;
7845;SDS011;3968;51.424;6.788;2023-06-24T02:22:07;10.20;;;7.78;;
7845;SDS011;3968;51.424;6.788;2023-06-24T02:24:35;9.98;;;7.10;;
7845;SDS011;3968;51.424;6.788;2023-06-24T02:27:03;10.65;;;8.10;;
7845;SDS011;3968;51.424;6.788;2023-06-24T02:29:30;10.70;;;7.32;;
7845;SDS011;3968;51.424;6.788;2023-06-24T02:31:56;10.77;;;7.45;;
7845;SDS011;3968;51.424;6.788;2023-06-24T02:34:23;8.43;;;6.90;;
7845;SDS011;3968;51.424;6.788;2023-06-24T02:36:49;11.88;;;7.32;;
7845;SDS011;3968;51.424;6.788;2023-06-24T02:39:15;7.78;;;7.03;;
7845;SDS011;3968;51.424;6.788;2023-06-24T02:41:41;7.18;;;6.47;;
7845;SDS011;3968;51.424;6.788;2023-06-24T02:44:08;8.88;;;6.72;;
7845;SDS011;3968;51.424;6.788;2023-06-24T02:46:34;9.68;;;6.90;;
7845;SDS011;3968;51.424;6.788;2023-06-24T02:49:01;9.80;;;7.10;;
7845;SDS011;3968;51.424;6.788;2023-06-24T02:51:28;8.32;;;6.82;;
7845;SDS011;3968;51.424;6.788;2023-06-24T02:53:55;8.70;;;6.72;;
7845;SDS011;3968;51.424;6.788;2023-06-24T02:56:23;9.23;;;6.15;;
7845;SDS011;3968;51.424;6.788;2023-06-24T02:58:51;7.00;;;6.32;;
7845;SDS011;3968;51.424;6.788;2023-06-24T03:01:18;10.45;;;7.10;;
7845;SDS011;3968;51.424;6.788;2023-06-24T03:03:49;9.65;;;6.32;;
7845;SDS011;3968;51.424;6.788;2023-06-24T03:06:15;6.90;;;6.00;;
7845;SDS011;3968;51.424;6.788;2023-06-24T03:08:42;10.40;;;6.80;;
7845;SDS011;3968;51.424;6.788;2023-06-24T03:11:11;11.10;;;7.15;;
7845;SDS011;3968;51.424;6.788;2023-06-24T03:13:38;7.55;;;6.80;;
7845;SDS011;3968;51.424;6.788;2023-06-24T03:16:04;8.32;;;6.68;;
7845;SDS011;3968;51.424;6.788;2023-06-24T03:18:30;8.75;;;7.25;;
7845;SDS011;3968;51.424;6.788;2023-06-24T03:20:56;8.77;;;7.20;;
7845;SDS011;3968;51.424;6.788;2023-06-24T03:23:22;9.98;;;7.25;;
7845;SDS011;3968;51.424;6.788;2023-06-24T03:25:48;9.13;;;7.38;;
7845;SDS011;3968;51.424;6.788;2023-06-24T03:28:14;9.43;;;7.05;;
7845;SDS011;3968;51.424;6.788;2023-06-24T03:30:40;8.13;;;7.15;;
7845;SDS011;3968;51.424;6.788;2023-06-24T03:33:06;8.70;;;6.75;;
7845;SDS011;3968;51.424;6.788;2023-06-24T03:35:32;9.45;;;6.93;;
7845;SDS011;3968;51.424;6.788;2023-06-24T03:37:58;7.60;;;6.85;;
7845;SDS011;3968;51.424;6.788;2023-06-24T03:40:23;10.32;;;7.35;;
7845;SDS011;3968;51.424;6.788;2023-06-24T03:42:49;8.45;;;7.32;;
7845;SDS011;3968;51.424;6.788;2023-06-24T03:45:15;9.57;;;7.45;;
7845;SDS011;3968;51.424;6.788;2023-06-24T03:47:41;8.82;;;7.10;;
7845;SDS011;3968;51.424;6.788;2023-06-24T03:50:06;11.55;;;6.97;;
7845;SDS011;3968;51.424;6.788;2023-06-24T03:52:32;10.48;;;8.10;;
7845;SDS011;3968;51.424;6.788;2023-06-24T03:54:59;9.23;;;7.57;;
7845;SDS011;3968;51.424;6.788;2023-06-24T03:57:26;10.25;;;7.90;;
7845;SDS011;3968;51.424;6.788;2023-06-24T03:59:52;12.10;;;7.63;;
7845;SDS011;3968;51.424;6.788;2023-06-24T04:02:17;8.77;;;6.88;;
7845;SDS011;3968;51.424;6.788;2023-06-24T04:04:43;8.13;;;7.32;;
7845;SDS011;3968;51.424;6.788;2023-06-24T04:07:09;12.45;;;7.88;;
7845;SDS011;3968;51.424;6.788;2023-06-24T04:09:35;11.90;;;8.00;;
7845;SDS011;3968;51.424;6.788;2023-06-24T04:12:01;9.43;;;7.45;;
7845;SDS011;3968;51.424;6.788;2023-06-24T04:14:28;8.93;;;7.53;;
7845;SDS011;3968;51.424;6.788;2023-06-24T04:16:53;10.15;;;7.68;;
7845;SDS011;3968;51.424;6.788;2023-06-24T04:19:19;12.68;;;8.23;;
7845;SDS011;3968;51.424;6.788;2023-06-24T04:21:45;9.95;;;6.80;;
7845;SDS011;3968;51.424;6.788;2023-06-24T04:24:10;9.98;;;7.25;;
7845;SDS011;3968;51.424;6.788;2023-06-24T04:26:36;11.77;;;8.27;;
7845;SDS011;3968;51.424;6.788;2023-06-24T04:29:02;11.02;;;7.78;;
7845;SDS011;3968;51.424;6.788;2023-06-24T04:31:28;10.30;;;7.93;;
7845;SDS011;3968;51.424;6.788;2023-06-24T04:33:54;15.20;;;7.53;;
7845;SDS011;3968;51.424;6.788;2023-06-24T04:36:20;10.00;;;7.60;;
7845;SDS011;3968;51.424;6.788;2023-06-24T04:38:46;9.82;;;7.65;;
7845;SDS011;3968;51.424;6.788;2023-06-24T04:41:12;10.98;;;7.78;;
7845;SDS011;3968;51.424;6.788;2023-06-24T04:43:38;10.93;;;8.02;;
7845;SDS011;3968;51.424;6.788;2023-06-24T04:46:04;9.38;;;7.63;;
7845;SDS011;3968;51.424;6.788;2023-06-24T04:48:30;11.35;;;7.80;;
7845;SDS011;3968;51.424;6.788;2023-06-24T04:50:55;14.57;;;7.88;;
7845;SDS011;3968;51.424;6.788;2023-06-24T04:53:23;11.65;;;8.23;;
7845;SDS011;3968;51.424;6.788;2023-06-24T04:55:49;10.13;;;8.00;;
7845;SDS011;3968;51.424;6.788;2023-06-24T04:58:14;10.10;;;7.65;;
7845;SDS011;3968;51.424;6.788;2023-06-24T05:00:40;12.32;;;8.55;;
7845;SDS011;3968;51.424;6.788;2023-06-24T05:03:06;13.73;;;8.57;;
7845;SDS011;3968;51.424;6.788;2023-06-24T05:05:32;12.60;;;8.63;;
7845;SDS011;3968;51.424;6.788;2023-06-24T05:07:58;13.48;;;8.70;;
7845;SDS011;3968;51.424;6.788;2023-06-24T05:10:24;10.85;;;8.73;;
7845;SDS011;3968;51.424;6.788;2023-06-24T05:12:50;10.82;;;8.82;;
7845;SDS011;3968;51.424;6.788;2023-06-24T05:15:16;11.70;;;8.73;;
7845;SDS011;3968;51.424;6.788;2023-06-24T05:17:42;10.10;;;8.38;;
7845;SDS011;3968;51.424;6.788;2023-06-24T05:20:07;13.43;;;9.07;;
7845;SDS011;3968;51.424;6.788;2023-06-24T05:22:34;10.57;;;8.60;;
7845;SDS011;3968;51.424;6.788;2023-06-24T05:25:00;11.85;;;9.25;;
7845;SDS011;3968;51.424;6.788;2023-06-24T05:27:26;10.93;;;8.43;;
7845;SDS011;3968;51.424;6.788;2023-06-24T05:29:51;12.88;;;8.77;;
7845;SDS011;3968;51.424;6.788;2023-06-24T05:32:17;11.25;;;8.48;;
7845;SDS011;3968;51.424;6.788;2023-06-24T05:34:45;10.93;;;8.65;;
7845;SDS011;3968;51.424;6.788;2023-06-24T05:37:11;13.88;;;9.30;;
7845;SDS011;3968;51.424;6.788;2023-06-24T05:39:36;11.85;;;8.80;;
7845;SDS011;3968;51.424;6.788;2023-06-24T05:42:02;11.13;;;7.90;;
7845;SDS011;3968;51.424;6.788;2023-06-24T05:44:28;9.90;;;8.20;;
7845;SDS011;3968;51.424;6.788;2023-06-24T05:46:54;10.32;;;8.90;;
7845;SDS011;3968;51.424;6.788;2023-06-24T05:49:20;13.63;;;8.90;;
7845;SDS011;3968;51.424;6.788;2023-06-24T05:51:46;11.18;;;8.73;;
7845;SDS011;3968;51.424;6.788;2023-06-24T05:54:12;14.48;;;10.93;;
7845;SDS011;3968;51.424;6.788;2023-06-24T05:56:37;12.65;;;8.90;;
7845;SDS011;3968;51.424;6.788;2023-06-24T05:59:03;13.30;;;10.38;;
7845;SDS011;3968;51.424;6.788;2023-06-24T06:01:29;13.30;;;8.82;;
7845;SDS011;3968;51.424;6.788;2023-06-24T06:03:55;10.43;;;8.93;;
7845;SDS011;3968;51.424;6.788;2023-06-24T06:06:20;11.93;;;9.75;;
7845;SDS011;3968;51.424;6.788;2023-06-24T06:08:47;14.20;;;9.93;;
7845;SDS011;3968;51.424;6.788;2023-06-24T06:11:13;11.15;;;9.50;;
7845;SDS011;3968;51.424;6.788;2023-06-24T06:13:39;13.77;;;10.32;;
7845;SDS011;3968;51.424;6.788;2023-06-24T06:16:04;12.10;;;10.15;;
7845;SDS011;3968;51.424;6.788;2023-06-24T06:18:31;13.52;;;10.88;;
7845;SDS011;3968;51.424;6.788;2023-06-24T06:20:57;13.15;;;10.65;;
7845;SDS011;3968;51.424;6.788;2023-06-24T06:23:22;11.82;;;10.38;;
7845;SDS011;3968;51.424;6.788;2023-06-24T06:25:49;14.32;;;11.73;;
7845;SDS011;3968;51.424;6.788;2023-06-24T06:28:15;13.35;;;10.00;;
7845;SDS011;3968;51.424;6.788;2023-06-24T06:30:41;17.05;;;12.65;;
7845;SDS011;3968;51.424;6.788;2023-06-24T06:33:07;12.55;;;11.25;;
7845;SDS011;3968;51.424;6.788;2023-06-24T06:35:33;16.15;;;11.55;;
7845;SDS011;3968;51.424;6.788;2023-06-24T06:37:59;13.05;;;10.63;;
7845;SDS011;3968;51.424;6.788;2023-06-24T06:40:25;16.20;;;13.20;;
7845;SDS011;3968;51.424;6.788;2023-06-24T06:42:53;14.65;;;11.88;;
7845;SDS011;3968;51.424;6.788;2023-06-24T06:45:19;15.27;;;11.82;;
7845;SDS011;3968;51.424;6.788;2023-06-24T06:47:45;20.30;;;12.75;;
7845;SDS011;3968;51.424;6.788;2023-06-24T06:50:10;18.63;;;13.32;;
7845;SDS011;3968;51.424;6.788;2023-06-24T06:52:36;15.95;;;12.43;;
7845;SDS011;3968;51.424;6.788;2023-06-24T06:55:03;15.00;;;12.57;;
7845;SDS011;3968;51.424;6.788;2023-06-24T06:57:29;16.85;;;13.07;;
7845;SDS011;3968;51.424;6.788;2023-06-24T06:59:55;15.23;;;13.07;;
7845;SDS011;3968;51.424;6.788;2023-06-24T07:02:21;14.60;;;12.10;;
7845;SDS011;3968;51.424;6.788;2023-06-24T07:04:47;19.38;;;12.68;;
7845;SDS011;3968;51.424;6.788;2023-06-24T07:07:13;20.17;;;13.05;;
7845;SDS011;3968;51.424;6.788;2023-06-24T07:09:39;21.10;;;15.93;;
7845;SDS011;3968;51.424;6.788;2023-06-24T07:12:05;17.63;;;13.95;;
7845;SDS011;3968;51.424;6.788;2023-06-24T07:14:31;15.63;;;13.70;;
7845;SDS011;3968;51.424;6.788;2023-06-24T07:16:57;31.75;;;16.08;;
7845;SDS011;3968;51.424;6.788;2023-06-24T07:19:23;18.83;;;15.02;;
7845;SDS011;3968;51.424;6.788;2023-06-24T07:21:49;22.35;;;15.30;;
7845;SDS011;3968;51.424;6.788;2023-06-24T07:24:15;20.40;;;14.30;;
7845;SDS011;3968;51.424;6.788;2023-06-24T07:26:41;17.45;;;13.55;;
7845;SDS011;3968;51.424;6.788;2023-06-24T07:29:07;16.00;;;12.35;;
7845;SDS011;3968;51.424;6.788;2023-06-24T07:31:33;20.17;;;15.02;;
7845;SDS011;3968;51.424;6.788;2023-06-24T07:33:59;19.27;;;14.20;;
7845;SDS011;3968;51.424;6.788;2023-06-24T07:36:25;19.15;;;15.93;;
7845;SDS011;3968;51.424;6.788;2023-06-24T07:38:51;18.48;;;13.77;;
7845;SDS011;3968;51.424;6.788;2023-06-24T07:41:17;15.75;;;12.95;;
7845;SDS011;3968;51.424;6.788;2023-06-24T07:43:43;20.17;;;15.43;;
7845;SDS011;3968;51.424;6.788;2023-06-24T07:46:09;20.02;;;14.80;;
7845;SDS011;3968;51.424;6.788;2023-06-24T07:48:35;16.65;;;14.38;;
7845;SDS011;3968;51.424;6.788;2023-06-24T07:51:01;22.20;;;16.40;;
7845;SDS011;3968;51.424;6.788;2023-06-24T07:53:26;20.15;;;15.02;;
7845;SDS011;3968;51.424;6.788;2023-06-24T07:55:52;21.05;;;15.50;;
7845;SDS011;3968;51.424;6.788;2023-06-24T07:58:18;17.70;;;14.02;;
7845;SDS011;3968;51.424;6.788;2023-06-24T08:00:44;17.17;;;12.02;;
7845;SDS011;3968;51.424;6.788;2023-06-24T08:03:11;18.10;;;12.88;;
7845;SDS011;3968;51.424;6.788;2023-06-24T08:05:37;126.35;;;92.28;;
7845;SDS011;3968;51.424;6.788;2023-06-24T08:08:04;232.48;;;167.02;;
7845;SDS011;3968;51.424;6.788;2023-06-24T08:10:30;197.27;;;139.25;;
7845;SDS011;3968;51.424;6.788;2023-06-24T08:12:56;68.78;;;50.45;;
7845;SDS011;3968;51.424;6.788;2023-06-24T08:15:22;45.22;;;33.25;;
7845;SDS011;3968;51.424;6.788;2023-06-24T08:17:51;54.35;;;41.50;;
7845;SDS011;3968;51.424;6.788;2023-06-24T08:20:18;50.53;;;37.17;;
7845;SDS011;3968;51.424;6.788;2023-06-24T08:22:45;33.85;;;25.52;;
7845;SDS011;3968;51.424;6.788;2023-06-24T08:25:10;34.35;;;26.35;;
7845;SDS011;3968;51.424;6.788;2023-06-24T08:27:36;31.75;;;24.58;;
7845;SDS011;3968;51.424;6.788;2023-06-24T08:30:03;25.63;;;18.55;;
7845;SDS011;3968;51.424;6.788;2023-06-24T08:32:30;18.98;;;15.00;;
7845;SDS011;3968;51.424;6.788;2023-06-24T08:34:56;21.95;;;16.75;;
7845;SDS011;3968;51.424;6.788;2023-06-24T08:37:22;24.05;;;17.65;;
7845;SDS011;3968;51.424;6.788;2023-06-24T08:39:47;85.68;;;56.88;;
7845;SDS011;3968;51.424;6.788;2023-06-24T08:42:13;42.67;;;32.33;;
7845;SDS011;3968;51.424;6.788;2023-06-24T08:44:39;26.50;;;19.17;;
7845;SDS011;3968;51.424;6.788;2023-06-24T08:47:05;18.08;;;13.20;;
7845;SDS011;3968;51.424;6.788;2023-06-24T08:49:31;18.13;;;13.43;;
7845;SDS011;3968;51.424;6.788;2023-06-24T08:52:03;19.65;;;15.63;;
7845;SDS011;3968;51.424;6.788;2023-06-24T08:54:34;18.33;;;14.85;;
7845;SDS011;3968;51.424;6.788;2023-06-24T08:57:01;16.92;;;12.85;;
7845;SDS011;3968;51.424;6.788;2023-06-24T08:59:29;12.32;;;9.45;;
7845;SDS011;3968;51.424;6.788;2023-06-24T09:01:56;19.95;;;15.10;;
7845;SDS011;3968;51.424;6.788;2023-06-24T09:04:21;10.57;;;8.80;;
7845;SDS011;3968;51.424;6.788;2023-06-24T09:06:47;14.38;;;11.35;;
7845;SDS011;3968;51.424;6.788;2023-06-24T09:09:17;19.88;;;8.60;;
7845;SDS011;3968;51.424;6.788;2023-06-24T09:11:57;12.48;;;9.00;;
7845;SDS011;3968;51.424;6.788;2023-06-24T09:14:24;14.07;;;8.48;;
7845;SDS011;3968;51.424;6.788;2023-06-24T09:16:58;9.68;;;7.05;;
7845;SDS011;3968;51.424;6.788;2023-06-24T09:19:26;8.43;;;5.68;;
7845;SDS011;3968;51.424;6.788;2023-06-24T09:22:01;7.13;;;5.35;;
7845;SDS011;3968;51.424;6.788;2023-06-24T09:24:29;8.70;;;7.30;;
7845;SDS011;3968;51.424;6.788;2023-06-24T09:26:56;7.20;;;5.22;;
7845;SDS011;3968;51.424;6.788;2023-06-24T09:29:28;8.25;;;5.63;;
7845;SDS011;3968;51.424;6.788;2023-06-24T09:31:56;7.63;;;5.82;;
7845;SDS011;3968;51.424;6.788;2023-06-24T09:34:24;6.78;;;5.43;;
7845;SDS011;3968;51.424;6.788;2023-06-24T09:36:54;7.50;;;5.93;;
7845;SDS011;3968;51.424;6.788;2023-06-24T09:39:21;6.85;;;5.13;;
7845;SDS011;3968;51.424;6.788;2023-06-24T09:41:50;10.65;;;5.57;;
7845;SDS011;3968;51.424;6.788;2023-06-24T09:44:16;8.05;;;6.15;;
7845;SDS011;3968;51.424;6.788;2023-06-24T09:46:44;9.80;;;6.78;;
7845;SDS011;3968;51.424;6.788;2023-06-24T09:49:10;10.25;;;6.05;;
7845;SDS011;3968;51.424;6.788;2023-06-24T09:51:37;87.70;;;65.70;;
7845;SDS011;3968;51.424;6.788;2023-06-24T09:54:07;273.05;;;163.90;;
7845;SDS011;3968;51.424;6.788;2023-06-24T09:56:35;28.35;;;20.20;;
7845;SDS011;3968;51.424;6.788;2023-06-24T09:59:03;10.32;;;6.95;;
7845;SDS011;3968;51.424;6.788;2023-06-24T10:01:30;11.38;;;7.95;;
7845;SDS011;3968;51.424;6.788;2023-06-24T10:04:00;11.35;;;9.55;;
7845;SDS011;3968;51.424;6.788;2023-06-24T10:06:27;10.07;;;7.00;;
7845;SDS011;3968;51.424;6.788;2023-06-24T10:08:53;8.18;;;5.70;;
7845;SDS011;3968;51.424;6.788;2023-06-24T10:11:19;9.95;;;6.18;;
7845;SDS011;3968;51.424;6.788;2023-06-24T10:13:46;10.90;;;7.38;;
7845;SDS011;3968;51.424;6.788;2023-06-24T10:16:11;10.75;;;8.43;;
7845;SDS011;3968;51.424;6.788;2023-06-24T10:18:38;8.75;;;7.00;;
7845;SDS011;3968;51.424;6.788;2023-06-24T10:21:04;8.02;;;5.60;;
7845;SDS011;3968;51.424;6.788;2023-06-24T10:26:21;15.93;;;5.50;;
7845;SDS011;3968;51.424;6.788;2023-06-24T10:36:54;4.13;;;3.20;;
7845;SDS011;3968;51.424;6.788;2023-06-24T10:44:50;6.05;;;4.32;;
7845;SDS011;3968;51.424;6.788;2023-06-24T10:47:16;5.10;;;4.57;;
7845;SDS011;3968;51.424;6.788;2023-06-24T10:49:45;11.02;;;5.47;;
7845;SDS011;3968;51.424;6.788;2023-06-24T10:52:11;6.75;;;4.90;;
7845;SDS011;3968;51.424;6.788;2023-06-24T10:54:38;9.30;;;5.50;;
7845;SDS011;3968;51.424;6.788;2023-06-24T10:57:05;9.43;;;5.35;;
7845;SDS011;3968;51.424;6.788;2023-06-24T10:59:34;8.80;;;4.95;;
7845;SDS011;3968;51.424;6.788;2023-06-24T11:02:00;6.35;;;4.45;;
7845;SDS011;3968;51.424;6.788;2023-06-24T11:04:26;7.85;;;4.95;;
7845;SDS011;3968;51.424;6.788;2023-06-24T11:07:01;8.02;;;5.30;;
7845;SDS011;3968;51.424;6.788;2023-06-24T11:09:27;6.25;;;5.03;;
7845;SDS011;3968;51.424;6.788;2023-06-24T11:11:53;5.47;;;4.20;;
7845;SDS011;3968;51.424;6.788;2023-06-24T11:14:19;6.10;;;4.32;;
7845;SDS011;3968;51.424;6.788;2023-06-24T11:16:45;7.82;;;4.72;;
7845;SDS011;3968;51.424;6.788;2023-06-24T11:19:11;6.30;;;5.13;;
7845;SDS011;3968;51.424;6.788;2023-06-24T11:21:37;10.32;;;4.00;;
7845;SDS011;3968;51.424;6.788;2023-06-24T11:24:03;4.70;;;4.20;;
7845;SDS011;3968;51.424;6.788;2023-06-24T11:26:29;8.43;;;4.93;;
7845;SDS011;3968;51.424;6.788;2023-06-24T11:28:55;6.20;;;4.65;;
7845;SDS011;3968;51.424;6.788;2023-06-24T11:31:27;6.60;;;4.30;;
7845;SDS011;3968;51.424;6.788;2023-06-24T11:33:53;7.15;;;4.53;;
7845;SDS011;3968;51.424;6.788;2023-06-24T11:36:19;6.13;;;4.30;;
7845;SDS011;3968;51.424;6.788;2023-06-24T11:38:45;4.82;;;4.18;;
7845;SDS011;3968;51.424;6.788;2023-06-24T11:41:12;6.70;;;4.43;;
7845;SDS011;3968;51.424;6.788;2023-06-24T11:43:37;11.65;;;5.95;;
7845;SDS011;3968;51.424;6.788;2023-06-24T11:46:21;7.65;;;6.07;;
7845;SDS011;3968;51.424;6.788;2023-06-24T11:51:31;10.07;;;5.72;;
7845;SDS011;3968;51.424;6.788;2023-06-24T11:54:04;5.88;;;4.90;;
7845;SDS011;3968;51.424;6.788;2023-06-24T11:56:34;5.30;;;4.43;;
7845;SDS011;3968;51.424;6.788;2023-06-24T11:59:04;6.50;;;4.30;;
7845;SDS011;3968;51.424;6.788;2023-06-24T12:04:20;5.65;;;4.45;;
7845;SDS011;3968;51.424;6.788;2023-06-24T12:06:46;5.75;;;4.47;;
7845;SDS011;3968;51.424;6.788;2023-06-24T12:09:12;5.10;;;4.20;;
7845;SDS011;3968;51.424;6.788;2023-06-24T12:11:37;7.30;;;5.18;;
7845;SDS011;3968;51.424;6.788;2023-06-24T12:14:05;6.88;;;6.18;;
7845;SDS011;3968;51.424;6.788;2023-06-24T12:16:31;7.38;;;5.05;;
7845;SDS011;3968;51.424;6.788;2023-06-24T12:18:57;5.88;;;4.75;;
7845;SDS011;3968;51.424;6.788;2023-06-24T12:21:22;5.95;;;4.95;;
7845;SDS011;3968;51.424;6.788;2023-06-24T12:23:48;7.20;;;5.38;;
7845;SDS011;3968;51.424;6.788;2023-06-24T12:26:14;5.43;;;4.50;;
7845;SDS011;3968;51.424;6.788;2023-06-24T12:28:40;7.18;;;5.55;;
7845;SDS011;3968;51.424;6.788;2023-06-24T12:31:06;4.45;;;3.88;;
7845;SDS011;3968;51.424;6.788;2023-06-24T12:33:32;5.05;;;3.90;;
7845;SDS011;3968;51.424;6.788;2023-06-24T12:35:58;5.20;;;4.00;;
7845;SDS011;3968;51.424;6.788;2023-06-24T12:38:24;8.43;;;4.25;;
7845;SDS011;3968;51.424;6.788;2023-06-24T12:40:50;5.72;;;4.60;;
7845;SDS011;3968;51.424;6.788;2023-06-24T12:43:17;5.90;;;5.30;;
7845;SDS011;3968;51.424;6.788;2023-06-24T12:45:43;6.57;;;4.45;;
7845;SDS011;3968;51.424;6.788;2023-06-24T12:48:10;6.10;;;4.93;;
7845;SDS011;3968;51.424;6.788;2023-06-24T12:50:36;6.85;;;4.28;;
7845;SDS011;3968;51.424;6.788;2023-06-24T12:53:02;11.63;;;6.88;;
7845;SDS011;3968;51.424;6.788;2023-06-24T12:55:28;7.03;;;4.60;;
7845;SDS011;3968;51.424;6.788;2023-06-24T12:57:54;7.40;;;4.20;;
7845;SDS011;3968;51.424;6.788;2023-06-24T13:00:20;9.70;;;4.88;;
7845;SDS011;3968;51.424;6.788;2023-06-24T13:02:47;5.88;;;3.97;;
7845;SDS011;3968;51.424;6.788;2023-06-24T13:05:14;4.55;;;4.00;;
7845;SDS011;3968;51.424;6.788;2023-06-24T13:07:40;4.32;;;3.40;;
7845;SDS011;3968;51.424;6.788;2023-06-24T13:10:06;5.78;;;3.30;;
7845;SDS011;3968;51.424;6.788;2023-06-24T13:12:32;5.47;;;3.95;;
7845;SDS011;3968;51.424;6.788;2023-06-24T13:14:58;3.95;;;3.40;;
7845;SDS011;3968;51.424;6.788;2023-06-24T13:17:24;4.03;;;3.40;;
7845;SDS011;3968;51.424;6.788;2023-06-24T13:19:49;3.50;;;3.20;;
7845;SDS011;3968;51.424;6.788;2023-06-24T13:22:15;4.55;;;3.40;;
7845;SDS011;3968;51.424;6.788;2023-06-24T13:24:42;4.07;;;3.67;;
7845;SDS011;3968;51.424;6.788;2023-06-24T13:27:08;4.60;;;4.10;;
7845;SDS011;3968;51.424;6.788;2023-06-24T13:29:33;5.10;;;4.10;;
7845;SDS011;3968;51.424;6.788;2023-06-24T13:32:00;4.20;;;3.28;;
7845;SDS011;3968;51.424;6.788;2023-06-24T13:34:25;5.82;;;3.90;;
7845;SDS011;3968;51.424;6.788;2023-06-24T13:36:51;3.25;;;2.83;;
7845;SDS011;3968;51.424;6.788;2023-06-24T13:39:17;4.32;;;3.28;;
7845;SDS011;3968;51.424;6.788;2023-06-24T13:41:46;5.57;;;4.03;;
7845;SDS011;3968;51.424;6.788;2023-06-24T13:44:12;6.90;;;4.10;;
7845;SDS011;3968;51.424;6.788;2023-06-24T13:46:38;4.10;;;3.58;;
7845;SDS011;3968;51.424;6.788;2023-06-24T13:49:04;4.82;;;4.20;;
7845;SDS011;3968;51.424;6.788;2023-06-24T13:51:30;3.67;;;3.10;;
7845;SDS011;3968;51.424;6.788;2023-06-24T13:53:56;7.60;;;3.50;;
7845;SDS011;3968;51.424;6.788;2023-06-24T13:56:23;8.35;;;6.05;;
7845;SDS011;3968;51.424;6.788;2023-06-24T13:58:50;3.80;;;3.40;;
7845;SDS011;3968;51.424;6.788;2023-06-24T14:01:16;5.00;;;3.63;;
7845;SDS011;3968;51.424;6.788;2023-06-24T14:03:42;7.45;;;4.70;;
7845;SDS011;3968;51.424;6.788;2023-06-24T14:06:08;6.03;;;4.20;;
7845;SDS011;3968;51.424;6.788;2023-06-24T14:08:34;4.93;;;3.45;;
7845;SDS011;3968;51.424;6.788;2023-06-24T14:11:00;5.75;;;3.72;;
7845;SDS011;3968;51.424;6.788;2023-06-24T14:13:26;6.32;;;4.15;;
7845;SDS011;3968;51.424;6.788;2023-06-24T14:15:53;5.18;;;3.10;;
7845;SDS011;3968;51.424;6.788;2023-06-24T14:18:19;3.83;;;3.10;;
7845;SDS011;3968;51.424;6.788;2023-06-24T14:20:45;6.05;;;3.97;;
7845;SDS011;3968;51.424;6.788;2023-06-24T14:23:11;5.60;;;4.90;;
7845;SDS011;3968;51.424;6.788;2023-06-24T14:25:37;4.55;;;3.70;;
7845;SDS011;3968;51.424;6.788;2023-06-24T14:28:04;3.58;;;3.03;;
7845;SDS011;3968;51.424;6.788;2023-06-24T14:30:30;5.13;;;4.07;;
7845;SDS011;3968;51.424;6.788;2023-06-24T14:32:56;6.75;;;4.78;;
7845;SDS011;3968;51.424;6.788;2023-06-24T14:35:21;5.10;;;3.53;;
7845;SDS011;3968;51.424;6.788;2023-06-24T14:37:47;3.38;;;3.05;;
7845;SDS011;3968;51.424;6.788;2023-06-24T14:40:13;3.55;;;2.78;;
7845;SDS011;3968;51.424;6.788;2023-06-24T14:42:39;3.55;;;3.00;;
7845;SDS011;3968;51.424;6.788;2023-06-24T14:45:05;3.72;;;3.30;;
7845;SDS011;3968;51.424;6.788;2023-06-24T14:47:32;3.60;;;2.90;;
7845;SDS011;3968;51.424;6.788;2023-06-24T14:49:58;3.38;;;2.72;;
7845;SDS011;3968;51.424;6.788;2023-06-24T14:52:24;4.10;;;3.22;;
7845;SDS011;3968;51.424;6.788;2023-06-24T14:54:50;3.95;;;3.50;;
7845;SDS011;3968;51.424;6.788;2023-06-24T14:57:16;3.63;;;3.03;;
7845;SDS011;3968;51.424;6.788;2023-06-24T14:59:42;3.65;;;3.00;;
7845;SDS011;3968;51.424;6.788;2023-06-24T15:02:07;4.57;;;3.00;;
7845;SDS011;3968;51.424;6.788;2023-06-24T15:04:35;3.05;;;2.75;;
7845;SDS011;3968;51.424;6.788;2023-06-24T15:07:01;3.08;;;2.78;;
7845;SDS011;3968;51.424;6.788;2023-06-24T15:09:27;5.13;;;2.97;;
7845;SDS011;3968;51.424;6.788;2023-06-24T15:11:52;4.53;;;3.50;;
7845;SDS011;3968;51.424;6.788;2023-06-24T15:14:18;5.07;;;3.78;;
7845;SDS011;3968;51.424;6.788;2023-06-24T15:16:44;3.28;;;2.97;;
7845;SDS011;3968;51.424;6.788;2023-06-24T15:19:10;3.65;;;2.95;;
7845;SDS011;3968;51.424;6.788;2023-06-24T15:21:36;3.30;;;2.80;;
7845;SDS011;3968;51.424;6.788;2023-06-24T15:24:02;4.07;;;3.67;;
7845;SDS011;3968;51.424;6.788;2023-06-24T15:26:28;4.47;;;3.50;;
7845;SDS011;3968;51.424;6.788;2023-06-24T15:28:54;3.80;;;3.35;;
7845;SDS011;3968;51.424;6.788;2023-06-24T15:31:19;3.72;;;3.30;;
7845;SDS011;3968;51.424;6.788;2023-06-24T15:33:45;3.75;;;3.25;;
7845;SDS011;3968;51.424;6.788;2023-06-24T15:36:11;4.13;;;3.33;;
7845;SDS011;3968;51.424;6.788;2023-06-24T15:38:37;4.35;;;3.08;;